createdAt,value
2022-08-30T00:01:04.529Z,0
2022-08-30T00:06:27.189Z,0
2022-08-30T00:11:49.650Z,0
2022-08-30T00:17:12.490Z,0
2022-08-30T00:22:39.886Z,0
2022-08-30T00:28:11.151Z,0
2022-08-30T00:33:33.527Z,0
2022-08-30T00:38:55.774Z,0
2022-08-30T00:44:17.970Z,0
2022-08-30T00:49:40.505Z,0
2022-08-30T00:55:03.090Z,0
2022-08-30T01:00:25.849Z,0
2022-08-30T01:05:48.183Z,0
2022-08-30T01:11:10.589Z,0
2022-08-30T01:16:32.717Z,0
2022-08-30T01:21:57.906Z,0
2022-08-30T01:27:20.565Z,0
2022-08-30T01:32:42.960Z,0
2022-08-30T01:38:05.537Z,0
2022-08-30T01:43:27.908Z,0
2022-08-30T01:48:53.743Z,0
2022-08-30T01:54:17.162Z,0
2022-08-30T01:59:39.531Z,0
2022-08-30T02:05:09.635Z,0
2022-08-30T02:10:32.408Z,0
2022-08-30T02:15:55.416Z,0
2022-08-30T02:21:17.919Z,0
2022-08-30T02:26:43.253Z,0
2022-08-30T02:32:05.923Z,0
2022-08-30T02:37:28.386Z,0
2022-08-30T02:43:08.343Z,0
2022-08-30T02:48:31.144Z,0
2022-08-30T02:53:56.127Z,0
2022-08-30T02:59:21.416Z,0
2022-08-30T03:04:43.643Z,0
2022-08-30T03:10:05.924Z,0
2022-08-30T03:15:28.141Z,0
2022-08-30T03:20:53.956Z,0
2022-08-30T03:26:17.622Z,0
2022-08-30T03:31:52.761Z,0
2022-08-30T03:37:16.742Z,0
2022-08-30T03:42:46.553Z,0
2022-08-30T03:48:38.647Z,0
2022-08-30T03:54:01.302Z,0
2022-08-30T03:59:23.809Z,0
2022-08-30T04:04:46.301Z,0
2022-08-30T04:10:08.742Z,0
2022-08-30T04:20:39.992Z,0
2022-08-30T04:26:03.027Z,0
2022-08-30T04:31:26.105Z,0
2022-08-30T04:41:57.616Z,0
2022-08-30T04:47:21.224Z,0
2022-08-30T04:57:49.530Z,0.1
2022-08-30T05:03:12.223Z,0.1
2022-08-30T05:08:35.652Z,0.1
2022-08-30T05:13:58.274Z,0.1
2022-08-30T05:19:23.318Z,0.1
2022-08-30T05:24:46.532Z,0.1
2022-08-30T05:30:08.994Z,0.2
2022-08-30T05:35:31.456Z,0.2
2022-08-30T05:40:54.525Z,0.2
2022-08-30T05:46:22.123Z,0.4
2022-08-30T05:51:45.547Z,0.5
2022-08-30T05:57:08.478Z,0.3
2022-08-30T06:02:31.385Z,0.5
2022-08-30T06:07:57.415Z,0.5
2022-08-30T06:13:19.977Z,0.6
2022-08-30T06:18:45.415Z,0.6
2022-08-30T06:24:17.503Z,0.5
2022-08-30T06:29:40.955Z,0.8
2022-08-30T06:35:03.525Z,1
2022-08-30T06:40:26.137Z,1
2022-08-30T06:51:25.547Z,1.1
2022-08-30T06:56:57.972Z,1.6
2022-08-30T07:02:22.191Z,1.1
2022-08-30T07:07:45.375Z,1.4
2022-08-30T07:13:07.995Z,1.5
2022-08-30T07:18:30.695Z,1.1
2022-08-30T07:23:54.924Z,1
2022-08-30T07:29:17.551Z,2.1
2022-08-30T07:34:42.885Z,1.1
2022-08-30T07:40:05.623Z,1.2
2022-08-30T07:45:28.509Z,1.3
2022-08-30T07:50:54.869Z,3.3
2022-08-30T07:56:30.719Z,2.9
2022-08-30T08:01:53.500Z,4.1
2022-08-30T08:07:16.566Z,3.1
2022-08-30T08:12:40.116Z,2.8
2022-08-30T08:18:02.273Z,2
2022-08-30T08:23:24.291Z,1.7
2022-08-30T08:28:48.809Z,1.3
2022-08-30T08:34:10.911Z,1.2
2022-08-30T08:39:35.481Z,5.5
2022-08-30T08:44:59.636Z,4.8
2022-08-30T08:50:26.956Z,4.9
2022-08-30T08:55:49.660Z,5
2022-08-30T09:01:16.440Z,5.3
2022-08-30T09:06:39.608Z,4.6
2022-08-30T09:12:08.887Z,5
2022-08-30T09:17:31.627Z,5.6
2022-08-30T09:22:56.841Z,5.5
2022-08-30T09:28:20.025Z,5.8
2022-08-30T09:33:43.141Z,5.4
2022-08-30T09:39:05.687Z,5.6
2022-08-30T09:50:02.572Z,5.7
2022-08-30T09:55:25.103Z,5.3
2022-08-30T10:00:54.471Z,5.3
2022-08-30T10:06:27.896Z,6
2022-08-30T10:11:51.149Z,2.6
2022-08-30T10:17:12.394Z,2.3
2022-08-30T10:22:35.936Z,5.9
2022-08-30T10:27:59.609Z,6.5
2022-08-30T10:33:22.530Z,6
2022-08-30T10:38:47.613Z,5.4
2022-08-30T10:44:12.360Z,5.9
2022-08-30T10:49:35.310Z,5.9
2022-08-30T10:54:58.107Z,5.2
2022-08-30T11:00:21.231Z,6.4
2022-08-30T11:05:47.086Z,6.3
2022-08-30T11:11:12.949Z,6.1
2022-08-30T11:16:36.001Z,5.4
2022-08-30T11:21:58.778Z,5.5
2022-08-30T11:27:24.225Z,6
2022-08-30T11:32:51.373Z,6.3
2022-08-30T11:38:13.959Z,5.6
2022-08-30T11:43:45.073Z,4.4
2022-08-30T11:49:15.733Z,2.8
2022-08-30T11:54:36.765Z,3.3
2022-08-30T11:59:59.201Z,3.6
2022-08-30T12:05:28.970Z,4.8
2022-08-30T12:10:53.419Z,5.9
2022-08-30T12:16:20.189Z,5.5
2022-08-30T12:21:44.995Z,6.1
2022-08-30T12:27:08.188Z,6.2
2022-08-30T12:32:30.999Z,6
2022-08-30T12:37:53.780Z,6
2022-08-30T12:43:15.457Z,4
2022-08-30T12:48:39.404Z,5.5
2022-08-30T12:54:05.368Z,5.6
2022-08-30T12:59:28.202Z,5.7
2022-08-30T13:04:51.481Z,5.4
2022-08-30T13:10:20.068Z,5.8
2022-08-30T13:15:42.477Z,5.6
2022-08-30T13:21:04.405Z,5.8
2022-08-30T13:27:03.975Z,5
2022-08-30T13:32:26.293Z,6.1
2022-08-30T13:37:50.874Z,5.3
2022-08-30T13:43:13.294Z,3.7
2022-08-30T13:48:36.007Z,4.1
2022-08-30T13:53:59.061Z,4.7
2022-08-30T13:59:20.450Z,2.4
2022-08-30T14:04:46.035Z,5.2
2022-08-30T14:22:04.396Z,5.8
2022-08-30T14:27:27.791Z,5.7
2022-08-30T14:32:53.846Z,3.9
2022-08-30T14:38:16.587Z,4.1
2022-08-30T14:43:42.041Z,1.7
2022-08-30T14:49:06.048Z,3.9
2022-08-30T14:54:27.487Z,1.2
2022-08-30T14:59:50.037Z,1
2022-08-30T15:05:12.648Z,0.8
2022-08-30T15:10:37.510Z,0.8
2022-08-30T15:16:05.603Z,0.8
2022-08-30T15:21:30.204Z,0.8
2022-08-30T15:26:54.270Z,0.8
2022-08-30T15:32:17.644Z,0.8
2022-08-30T15:37:41.037Z,0.9
2022-08-30T15:43:03.533Z,0.9
2022-08-30T15:48:26.918Z,0.9
2022-08-30T15:53:53.260Z,1.1
2022-08-30T15:59:16.067Z,1.1
2022-08-30T16:04:46.472Z,0.8
2022-08-30T16:10:09.162Z,0.7
2022-08-30T16:15:34.654Z,0.8
2022-08-30T16:20:58.662Z,0.7
2022-08-30T16:26:21.470Z,0.7
2022-08-30T16:36:53.153Z,0.6
2022-08-30T16:42:20.917Z,0.5
2022-08-30T16:47:44.556Z,0.5
2022-08-30T16:53:08.099Z,0.6
2022-08-30T16:58:30.870Z,0.5
2022-08-30T17:03:54.292Z,0.5
2022-08-30T17:09:16.919Z,0.4
2022-08-30T17:14:44.498Z,0.4
2022-08-30T17:20:11.751Z,0.3
2022-08-30T17:25:34.844Z,0.3
2022-08-30T17:30:57.407Z,0.3
2022-08-30T17:36:20.115Z,0.2
2022-08-30T17:41:43.361Z,0.2
2022-08-30T17:47:16.192Z,0.1
2022-08-30T17:52:38.787Z,0.1
2022-08-30T17:58:09.593Z,0.1
2022-08-30T18:03:45.245Z,0.1
2022-08-30T18:09:08.023Z,0.1
2022-08-30T18:14:30.487Z,0.1
2022-08-30T18:19:53.352Z,0
2022-08-30T18:30:41.291Z,0
2022-08-30T18:36:04.983Z,0
2022-08-30T18:41:27.397Z,0
2022-08-30T18:46:56.021Z,0
2022-08-30T18:52:55.988Z,0
2022-08-30T18:58:22.030Z,0
2022-08-30T19:03:45.516Z,0
2022-08-30T19:09:09.811Z,0
2022-08-30T19:14:49.950Z,0
2022-08-30T19:20:12.506Z,0
2022-08-30T19:25:40.885Z,0
2022-08-30T19:31:03.490Z,0
2022-08-30T19:36:31.446Z,0
2022-08-30T19:41:53.689Z,0
2022-08-30T19:47:16.409Z,0
2022-08-30T19:52:39.014Z,0
2022-08-30T19:58:03.214Z,0
2022-08-30T20:03:25.886Z,0
2022-08-30T20:14:10.728Z,0
2022-08-30T20:19:36.665Z,0
2022-08-30T20:24:59.658Z,0
2022-08-30T20:30:22.866Z,0
2022-08-30T20:35:49.242Z,0
2022-08-30T20:41:12.446Z,0
2022-08-30T20:46:35.191Z,0
2022-08-30T20:51:57.769Z,0
2022-08-30T20:57:24.339Z,0
2022-08-30T21:02:48.428Z,0
2022-08-30T21:08:55.665Z,0
2022-08-30T21:14:19.038Z,0
2022-08-30T21:19:44.038Z,0
2022-08-30T21:25:24.543Z,0
2022-08-30T21:30:47.063Z,0
2022-08-30T21:36:09.959Z,0
2022-08-30T21:41:32.359Z,0
2022-08-30T21:46:54.947Z,0
2022-08-30T21:52:17.440Z,0
2022-08-30T21:57:39.949Z,0
2022-08-30T22:03:02.561Z,0
2022-08-30T22:08:25.225Z,0
2022-08-30T22:24:56.561Z,0
2022-08-30T22:30:18.838Z,0
2022-08-30T22:35:41.564Z,0
2022-08-30T22:41:04.099Z,0
2022-08-30T22:46:34.094Z,0
2022-08-30T22:51:57.378Z,0
2022-08-30T22:57:20.420Z,0
2022-08-30T23:02:42.793Z,0
2022-08-30T23:08:09.210Z,0
2022-08-30T23:13:31.727Z,0
2022-08-30T23:18:56.694Z,0
2022-08-30T23:24:19.692Z,0
2022-08-30T23:29:42.234Z,0
2022-08-30T23:40:33.594Z,0
2022-08-30T23:45:58.692Z,0
2022-08-30T23:51:21.995Z,0
2022-08-30T23:56:47.079Z,0
